createdAt,value
2019-01-12T00:01:20.114Z,100637.92
2019-01-12T00:03:49.482Z,100640.50
2019-01-12T00:06:18.927Z,100632.88
2019-01-12T00:08:48.292Z,100634.66
2019-01-12T00:11:17.996Z,100632.42
2019-01-12T00:13:47.365Z,100629.38
2019-01-12T00:16:16.803Z,100633.23
2019-01-12T00:18:46.180Z,100626.24
2019-01-12T00:21:16.193Z,100628.62
2019-01-12T00:23:45.558Z,100634.64
2019-01-12T00:26:15.295Z,100627.48
2019-01-12T00:28:44.683Z,100629.06
2019-01-12T00:31:14.058Z,100626.06
2019-01-12T00:33:43.423Z,100626.69
2019-01-12T00:36:12.801Z,100619.87
2019-01-12T00:38:42.180Z,100623.05
2019-01-12T00:41:13.747Z,100615.95
2019-01-12T00:43:43.255Z,100621.64
2019-01-12T00:46:12.637Z,100617.39
2019-01-12T00:48:42.011Z,100624.00
2019-01-12T00:51:11.393Z,100614.19
2019-01-12T00:53:40.760Z,100616.02
2019-01-12T00:56:10.186Z,100613.65
2019-01-12T00:58:40.290Z,100608.91
2019-01-12T01:01:10.081Z,100610.96
2019-01-12T01:03:41.319Z,100610.33
2019-01-12T01:06:10.703Z,100605.59
2019-01-12T01:08:40.322Z,100602.75
2019-01-12T01:11:09.700Z,100597.63
2019-01-12T01:13:39.323Z,100604.72
2019-01-12T01:16:08.770Z,100603.19
2019-01-12T01:18:38.144Z,100604.48
2019-01-12T01:21:07.578Z,100602.98
2019-01-12T01:23:36.992Z,100604.75
2019-01-12T01:26:06.344Z,100602.95
2019-01-12T01:28:35.979Z,100607.30
2019-01-12T01:31:05.356Z,100601.77
2019-01-12T01:33:34.723Z,100601.77
2019-01-12T01:36:04.173Z,100605.36
2019-01-12T01:38:33.549Z,100610.39
2019-01-12T01:41:03.244Z,100605.80
2019-01-12T01:43:32.621Z,100605.64
2019-01-12T01:46:01.999Z,100604.48
2019-01-12T01:48:31.384Z,100606.35
2019-01-12T01:51:01.339Z,100606.22
2019-01-12T01:53:30.716Z,100604.80
2019-01-12T01:56:00.088Z,100604.61
2019-01-12T01:58:29.469Z,100604.53
2019-01-12T02:00:59.078Z,100600.66
2019-01-12T02:03:28.703Z,100602.16
2019-01-12T02:05:58.069Z,100601.00
2019-01-12T02:08:27.463Z,100598.30
2019-01-12T02:10:56.837Z,100597.03
2019-01-12T02:13:26.234Z,100595.08
2019-01-12T02:15:55.602Z,100596.41
2019-01-12T02:18:25.001Z,100598.77
2019-01-12T02:20:54.365Z,100595.28
2019-01-12T02:23:23.754Z,100589.30
2019-01-12T02:25:53.118Z,100593.33
2019-01-12T02:28:22.515Z,100590.72
2019-01-12T02:30:51.911Z,100589.73
2019-01-12T02:33:22.313Z,100588.66
2019-01-12T02:35:51.684Z,100592.45
2019-01-12T02:38:21.076Z,100588.14
2019-01-12T02:40:50.442Z,100580.61
2019-01-12T02:43:19.825Z,100585.81
2019-01-12T02:45:49.267Z,100583.47
2019-01-12T02:48:18.641Z,100581.99
2019-01-12T02:50:48.015Z,100578.88
2019-01-12T02:53:17.393Z,100577.39
2019-01-12T02:55:46.769Z,100574.05
2019-01-12T02:58:16.202Z,100572.67
2019-01-12T03:00:45.550Z,100571.75
2019-01-12T03:03:14.940Z,100566.20
2019-01-12T03:05:44.298Z,100570.67
2019-01-12T03:08:14.073Z,100566.25
2019-01-12T03:10:43.442Z,100560.70
2019-01-12T03:13:13.126Z,100563.38
2019-01-12T03:15:42.499Z,100560.17
2019-01-12T03:18:11.935Z,100557.41
2019-01-12T03:20:41.549Z,100559.62
2019-01-12T03:23:10.942Z,100556.61
2019-01-12T03:25:40.314Z,100551.53
2019-01-12T03:28:09.704Z,100545.34
2019-01-12T03:30:39.127Z,100541.11
2019-01-12T03:33:08.516Z,100533.08
2019-01-12T03:35:37.975Z,100535.30
2019-01-12T03:38:08.522Z,100532.42
2019-01-12T03:40:37.898Z,100530.30
2019-01-12T03:43:07.579Z,100524.39
2019-01-12T03:45:36.960Z,100521.45
2019-01-12T03:48:06.331Z,100517.91
2019-01-12T03:50:35.966Z,100515.30
2019-01-12T03:53:05.381Z,100519.59
2019-01-12T03:55:34.702Z,100519.33
2019-01-12T03:58:05.474Z,100514.52
2019-01-12T04:00:34.852Z,100513.30
2019-01-12T04:03:04.219Z,100509.15
2019-01-12T04:05:33.603Z,100507.09
2019-01-12T04:08:03.299Z,100505.11
2019-01-12T04:10:32.690Z,100497.94
2019-01-12T04:13:02.367Z,100500.17
2019-01-12T04:15:31.808Z,100497.05
2019-01-12T04:18:01.189Z,100495.23
2019-01-12T04:20:30.567Z,100495.59
2019-01-12T04:22:59.937Z,100481.48
2019-01-12T04:25:33.942Z,100488.44
2019-01-12T04:28:00.427Z,100476.85
2019-01-12T04:30:29.841Z,100477.66
2019-01-12T04:32:59.525Z,100473.95
2019-01-12T04:35:28.911Z,100481.43
2019-01-12T04:37:58.297Z,100478.75
2019-01-12T04:40:30.499Z,100478.88
2019-01-12T04:42:59.873Z,100464.16
2019-01-12T04:45:29.252Z,100470.37
2019-01-12T04:47:58.630Z,100474.16
2019-01-12T04:50:28.268Z,100475.22
2019-01-12T04:52:57.635Z,100470.07
2019-01-12T04:55:27.028Z,100476.37
2019-01-12T04:57:57.524Z,100472.61
2019-01-12T05:00:26.912Z,100480.25
2019-01-12T05:02:56.345Z,100474.59
2019-01-12T05:05:25.722Z,100482.41
2019-01-12T05:07:55.440Z,100475.36
2019-01-12T05:10:25.129Z,100476.70
2019-01-12T05:12:54.495Z,100473.37
2019-01-12T05:15:23.867Z,100476.55
2019-01-12T05:17:53.296Z,100477.05
2019-01-12T05:20:23.203Z,100477.11
2019-01-12T05:22:52.578Z,100469.41
2019-01-12T05:25:21.950Z,100469.20
2019-01-12T05:27:51.636Z,100466.36
2019-01-12T05:30:21.740Z,100465.49
2019-01-12T05:32:51.286Z,100464.97
2019-01-12T05:35:20.793Z,100468.20
2019-01-12T05:37:50.167Z,100465.17
2019-01-12T05:40:19.905Z,100462.84
2019-01-12T05:42:49.336Z,100468.89
2019-01-12T05:45:18.718Z,100472.05
2019-01-12T05:47:48.395Z,100470.97
2019-01-12T05:50:18.006Z,100469.19
2019-01-12T05:52:47.398Z,100463.19
2019-01-12T05:55:16.756Z,100459.81
2019-01-12T05:57:46.118Z,100460.89
2019-01-12T06:00:19.142Z,100454.06
2019-01-12T06:02:48.774Z,100454.53
2019-01-12T06:05:18.142Z,100457.48
2019-01-12T06:07:47.515Z,100450.78
2019-01-12T06:10:17.203Z,100451.43
2019-01-12T06:12:46.579Z,100455.67
2019-01-12T06:15:16.081Z,100451.86
2019-01-12T06:17:46.526Z,100454.72
2019-01-12T06:20:16.646Z,100453.70
2019-01-12T06:22:46.023Z,100448.08
2019-01-12T06:25:15.740Z,100443.60
2019-01-12T06:27:46.164Z,100447.28
2019-01-12T06:30:18.330Z,100450.13
2019-01-12T06:32:47.700Z,100445.88
2019-01-12T06:35:17.210Z,100450.14
2019-01-12T06:37:46.657Z,100447.94
2019-01-12T06:40:17.877Z,100448.61
2019-01-12T06:42:47.328Z,100450.35
2019-01-12T06:45:17.754Z,100446.41
2019-01-12T06:47:47.098Z,100438.49
2019-01-12T06:50:19.285Z,100436.52
2019-01-12T06:52:48.956Z,100433.39
2019-01-12T06:55:18.484Z,100432.63
2019-01-12T06:57:47.867Z,100427.28
2019-01-12T07:00:19.483Z,100426.13
2019-01-12T07:02:49.057Z,100421.82
2019-01-12T07:05:18.490Z,100410.33
2019-01-12T07:07:47.867Z,100416.02
2019-01-12T07:10:17.471Z,100408.33
2019-01-12T07:12:46.913Z,100408.61
2019-01-12T07:15:16.352Z,100414.32
2019-01-12T07:17:45.778Z,100420.31
2019-01-12T07:20:16.825Z,100420.50
2019-01-12T07:22:46.591Z,100414.58
2019-01-12T07:25:15.975Z,100407.80
2019-01-12T07:27:45.458Z,100411.95
2019-01-12T07:30:18.826Z,100409.45
2019-01-12T07:32:48.266Z,100409.84
2019-01-12T07:35:17.702Z,100414.37
2019-01-12T07:37:49.053Z,100412.38
2019-01-12T07:40:18.485Z,100404.51
2019-01-12T07:42:47.819Z,100399.59
2019-01-12T07:45:17.509Z,100395.73
2019-01-12T07:47:47.132Z,100400.55
2019-01-12T07:50:16.828Z,100384.63
2019-01-12T07:52:46.592Z,100377.11
2019-01-12T07:55:20.422Z,100389.69
2019-01-12T07:57:49.993Z,100383.37
2019-01-12T08:00:24.522Z,100373.61
2019-01-12T08:02:56.294Z,100368.02
2019-01-12T08:05:34.252Z,100369.78
2019-01-12T08:08:10.256Z,100363.28
2019-01-12T08:10:39.682Z,100352.28
2019-01-12T08:13:11.917Z,100357.24
2019-01-12T08:15:41.522Z,100349.27
2019-01-12T08:18:10.972Z,100344.20
2019-01-12T08:20:40.351Z,100326.83
2019-01-12T08:23:09.750Z,100314.23
2019-01-12T08:25:39.209Z,100311.41
2019-01-12T08:28:08.580Z,100314.60
2019-01-12T08:30:38.040Z,100302.70
2019-01-12T08:33:07.417Z,100296.89
2019-01-12T08:35:36.795Z,100289.14
2019-01-12T08:38:06.428Z,100291.73
2019-01-12T08:40:35.815Z,100282.25
2019-01-12T08:43:05.436Z,100277.37
2019-01-12T08:45:34.820Z,100272.30
2019-01-12T08:48:04.340Z,100276.34
2019-01-12T08:50:33.731Z,100279.06
2019-01-12T08:53:03.115Z,100292.50
2019-01-12T08:55:32.509Z,100301.70
2019-01-12T08:58:01.872Z,100307.91
2019-01-12T09:00:32.478Z,100320.70
2019-01-12T09:03:02.161Z,100322.86
2019-01-12T09:05:31.537Z,100317.08
2019-01-12T09:08:00.904Z,100303.98
2019-01-12T09:10:30.312Z,100286.75
2019-01-12T09:12:59.679Z,100289.56
2019-01-12T09:15:29.081Z,100283.81
2019-01-12T09:17:58.460Z,100283.20
2019-01-12T09:20:28.136Z,100274.91
2019-01-12T09:22:57.515Z,100254.95
2019-01-12T09:25:26.900Z,100246.02
2019-01-12T09:27:56.278Z,100243.81
2019-01-12T09:30:25.870Z,100243.16
2019-01-12T09:32:55.274Z,100242.59
2019-01-12T09:35:24.709Z,100231.31
2019-01-12T09:37:54.157Z,100239.95
2019-01-12T09:40:23.954Z,100228.38
2019-01-12T09:42:53.575Z,100235.39
2019-01-12T09:45:23.120Z,100229.84
2019-01-12T09:47:52.778Z,100229.36
2019-01-12T09:50:22.162Z,100226.95
2019-01-12T09:52:51.690Z,100223.64
2019-01-12T09:55:21.111Z,100229.53
2019-01-12T09:57:50.474Z,100223.38
2019-01-12T10:00:22.970Z,100211.34
2019-01-12T10:02:52.370Z,100207.20
2019-01-12T10:05:21.814Z,100201.45
2019-01-12T10:07:51.253Z,100201.58
2019-01-12T10:10:22.804Z,100189.13
2019-01-12T10:12:52.252Z,100189.94
2019-01-12T10:15:21.629Z,100182.26
2019-01-12T10:17:51.010Z,100184.18
2019-01-12T10:20:21.365Z,100149.52
2019-01-12T10:22:50.914Z,100149.28
2019-01-12T10:25:20.435Z,100151.18
2019-01-12T10:27:49.818Z,100148.62
2019-01-12T10:30:22.672Z,100148.52
2019-01-12T10:32:52.184Z,100140.33
2019-01-12T10:35:21.877Z,100131.05
2019-01-12T10:37:51.352Z,100135.33
2019-01-12T10:40:21.236Z,100120.08
2019-01-12T10:42:51.003Z,100132.59
2019-01-12T10:45:22.803Z,100112.97
2019-01-12T10:47:52.942Z,100107.05
2019-01-12T10:50:28.850Z,100115.86
2019-01-12T10:52:58.386Z,100123.41
2019-01-12T10:55:27.779Z,100106.81
2019-01-12T10:57:57.156Z,100111.28
2019-01-12T11:00:34.845Z,100108.21
2019-01-12T11:03:04.866Z,100111.04
2019-01-12T11:05:34.375Z,100121.36
2019-01-12T11:08:05.161Z,100111.73
2019-01-12T11:10:34.827Z,100106.11
2019-01-12T11:13:04.553Z,100106.80
2019-01-12T11:15:34.962Z,100103.06
2019-01-12T11:18:05.236Z,100087.74
2019-01-12T11:20:34.612Z,100095.23
2019-01-12T11:23:04.271Z,100082.79
2019-01-12T11:25:33.640Z,100070.64
2019-01-12T11:28:03.041Z,100067.20
2019-01-12T11:30:32.407Z,100063.77
2019-01-12T11:33:02.103Z,100061.80
2019-01-12T11:35:31.468Z,100055.52
2019-01-12T11:38:00.845Z,100052.28
2019-01-12T11:40:30.230Z,100032.53
2019-01-12T11:42:59.842Z,100020.75
2019-01-12T11:45:29.311Z,100032.22
2019-01-12T11:47:58.660Z,100037.89
2019-01-12T11:50:28.045Z,100034.17
2019-01-12T11:52:57.427Z,100019.52
2019-01-12T11:55:26.826Z,100010.58
2019-01-12T11:57:56.268Z,99997.69
2019-01-12T12:00:28.237Z,99990.45
2019-01-12T12:02:57.694Z,99988.04
2019-01-12T12:05:27.312Z,99986.73
2019-01-12T12:07:57.355Z,99981.19
2019-01-12T12:10:26.742Z,99982.81
2019-01-12T12:12:56.178Z,99978.27
2019-01-12T12:15:25.800Z,99973.25
2019-01-12T12:17:55.190Z,99955.92
2019-01-12T12:20:28.310Z,99936.91
2019-01-12T12:22:57.540Z,99937.58
2019-01-12T12:25:26.944Z,99940.81
2019-01-12T12:27:56.305Z,99922.28
2019-01-12T12:30:28.434Z,99919.51
2019-01-12T12:32:57.814Z,99915.80
2019-01-12T12:35:27.186Z,99905.47
2019-01-12T12:37:56.624Z,99902.47
2019-01-12T12:40:26.505Z,99900.41
2019-01-12T12:42:56.109Z,99891.44
2019-01-12T12:45:29.296Z,99895.58
2019-01-12T12:47:58.860Z,99881.47
2019-01-12T12:50:29.800Z,99867.33
2019-01-12T12:52:59.369Z,99853.78
2019-01-12T12:55:29.213Z,99847.65
2019-01-12T12:57:58.877Z,99856.97
2019-01-12T13:00:42.181Z,99841.56
2019-01-12T13:03:11.909Z,99846.86
2019-01-12T13:05:41.310Z,99839.67
2019-01-12T13:08:10.651Z,99843.55
2019-01-12T13:10:41.857Z,99827.97
2019-01-12T13:13:13.616Z,99818.65
2019-01-12T13:15:43.128Z,99824.50
2019-01-12T13:18:12.491Z,99818.65
2019-01-12T13:20:47.739Z,99820.82
2019-01-12T13:23:18.192Z,99822.60
2019-01-12T13:25:47.835Z,99818.73
2019-01-12T13:28:17.187Z,99818.41
2019-01-12T13:30:46.561Z,99816.52
2019-01-12T13:33:15.931Z,99805.17
2019-01-12T13:35:45.553Z,99804.70
2019-01-12T13:38:15.205Z,99793.95
2019-01-12T13:40:44.633Z,99809.29
2019-01-12T13:43:13.968Z,99806.56
2019-01-12T13:45:43.345Z,99783.44
2019-01-12T13:48:12.719Z,99782.25
2019-01-12T13:50:42.099Z,99795.45
2019-01-12T13:53:11.462Z,99788.89
2019-01-12T13:55:41.097Z,99785.56
2019-01-12T13:58:10.447Z,99775.38
2019-01-12T14:00:39.897Z,99776.75
2019-01-12T14:03:09.323Z,99771.02
2019-01-12T14:05:38.787Z,99770.03
2019-01-12T14:08:08.233Z,99765.06
2019-01-12T14:10:50.439Z,99760.99
2019-01-12T14:13:20.253Z,99760.12
2019-01-12T14:15:49.558Z,99764.70
2019-01-12T14:18:22.546Z,99759.69
2019-01-12T14:20:50.451Z,99749.52
2019-01-12T14:23:19.875Z,99745.69
2019-01-12T14:25:49.242Z,99739.30
2019-01-12T14:28:18.612Z,99738.82
2019-01-12T14:30:48.227Z,99731.98
2019-01-12T14:33:17.587Z,99740.51
2019-01-12T14:35:46.968Z,99727.82
2019-01-12T14:38:16.347Z,99720.08
2019-01-12T14:40:45.952Z,99715.48
2019-01-12T14:43:15.580Z,99702.00
2019-01-12T14:45:44.917Z,99712.98
2019-01-12T14:48:14.555Z,99700.61
2019-01-12T14:50:43.922Z,99701.32
2019-01-12T14:53:13.283Z,99708.88
2019-01-12T14:55:42.674Z,99707.72
2019-01-12T14:58:12.005Z,99703.53
2019-01-12T15:00:41.371Z,99704.67
2019-01-12T15:03:10.756Z,99700.76
2019-01-12T15:05:40.133Z,99698.34
2019-01-12T15:08:09.844Z,99697.87
2019-01-12T15:10:39.189Z,99699.77
2019-01-12T15:13:08.559Z,99700.72
2019-01-12T15:15:37.923Z,99687.00
2019-01-12T15:18:07.387Z,99682.84
2019-01-12T15:20:37.002Z,99694.75
2019-01-12T15:23:06.627Z,99681.53
2019-01-12T15:25:35.984Z,99694.06
2019-01-12T15:28:09.375Z,99696.55
2019-01-12T15:30:36.449Z,99703.59
2019-01-12T15:33:05.894Z,99696.83
2019-01-12T15:35:35.399Z,99699.28
2019-01-12T15:38:05.007Z,99698.48
2019-01-12T15:40:34.372Z,99695.66
2019-01-12T15:43:03.826Z,99687.59
2019-01-12T15:45:33.324Z,99690.55
2019-01-12T15:48:02.938Z,99691.14
2019-01-12T15:50:32.324Z,99691.61
2019-01-12T15:53:02.007Z,99687.53
2019-01-12T15:55:31.445Z,99689.42
2019-01-12T15:58:00.826Z,99687.80
2019-01-12T16:00:30.325Z,99701.95
2019-01-12T16:02:59.698Z,99697.45
2019-01-12T16:05:29.302Z,99700.45
2019-01-12T16:07:58.994Z,99697.99
2019-01-12T16:10:29.887Z,99703.72
2019-01-12T16:12:59.275Z,99703.95
2019-01-12T16:15:28.893Z,99698.62
2019-01-12T16:17:58.251Z,99693.77
2019-01-12T16:20:32.114Z,99694.77
2019-01-12T16:23:01.701Z,99692.23
2019-01-12T16:25:31.059Z,99695.52
2019-01-12T16:28:00.747Z,99693.63
2019-01-12T16:30:31.094Z,99699.20
2019-01-12T16:33:00.463Z,99691.56
2019-01-12T16:35:29.822Z,99693.67
2019-01-12T16:37:59.592Z,99681.84
2019-01-12T16:40:32.144Z,99677.84
2019-01-12T16:43:01.525Z,99677.91
2019-01-12T16:45:33.292Z,99677.36
2019-01-12T16:48:02.693Z,99681.59
2019-01-12T16:50:32.059Z,99670.05
2019-01-12T16:53:01.433Z,99671.11
2019-01-12T16:55:30.816Z,99676.44
2019-01-12T16:58:00.184Z,99687.92
2019-01-12T17:00:29.752Z,99677.84
2019-01-12T17:02:59.420Z,99681.73
2019-01-12T17:05:29.039Z,99672.14
2019-01-12T17:07:58.419Z,99673.11
2019-01-12T17:10:28.156Z,99674.35
2019-01-12T17:12:57.818Z,99663.86
2019-01-12T17:15:34.402Z,99668.88
2019-01-12T17:17:58.343Z,99673.37
2019-01-12T17:20:28.075Z,99672.19
2019-01-12T17:22:59.291Z,99677.89
2019-01-12T17:25:28.931Z,99685.92
2019-01-12T17:27:58.279Z,99684.14
2019-01-12T17:30:27.851Z,99669.11
2019-01-12T17:32:57.206Z,99673.02
2019-01-12T17:35:26.899Z,99671.22
2019-01-12T17:37:56.256Z,99673.67
2019-01-12T17:40:26.060Z,99668.45
2019-01-12T17:42:55.690Z,99666.41
2019-01-12T17:45:26.380Z,99658.78
2019-01-12T17:47:55.810Z,99638.08
2019-01-12T17:50:25.782Z,99622.88
2019-01-12T17:52:55.215Z,99635.01
2019-01-12T17:55:25.876Z,99627.47
2019-01-12T17:57:55.224Z,99620.31
2019-01-12T18:00:37.787Z,99628.05
2019-01-12T18:03:07.155Z,99616.36
2019-01-12T18:05:36.538Z,99618.84
2019-01-12T18:08:06.221Z,99619.98
2019-01-12T18:10:35.604Z,99614.41
2019-01-12T18:13:05.307Z,99613.52
2019-01-12T18:15:34.684Z,99602.25
2019-01-12T18:18:04.570Z,99610.64
2019-01-12T18:20:33.954Z,99614.26
2019-01-12T18:23:03.396Z,99611.74
2019-01-12T18:25:32.859Z,99622.17
2019-01-12T18:28:02.304Z,99620.74
2019-01-12T18:30:31.678Z,99627.28
2019-01-12T18:33:01.065Z,99632.73
2019-01-12T18:35:31.353Z,99631.67
2019-01-12T18:38:00.718Z,99633.36
2019-01-12T18:40:30.101Z,99619.87
2019-01-12T18:42:59.491Z,99626.59
2019-01-12T18:45:28.854Z,99634.47
2019-01-12T18:47:58.222Z,99636.25
2019-01-12T18:50:28.809Z,99633.89
2019-01-12T18:52:58.249Z,99632.55
2019-01-12T18:55:28.590Z,99629.55
2019-01-12T18:57:58.697Z,99634.52
2019-01-12T19:00:29.920Z,99641.19
2019-01-12T19:02:59.580Z,99630.80
2019-01-12T19:05:28.947Z,99631.89
2019-01-12T19:07:58.380Z,99638.11
2019-01-12T19:10:27.757Z,99635.49
2019-01-12T19:12:57.596Z,99635.11
2019-01-12T19:15:28.880Z,99645.18
2019-01-12T19:17:58.253Z,99637.39
2019-01-12T19:20:27.670Z,99645.30
2019-01-12T19:22:57.076Z,99634.74
2019-01-12T19:25:26.706Z,99640.55
2019-01-12T19:27:56.093Z,99634.48
2019-01-12T19:30:25.554Z,99633.81
2019-01-12T19:32:54.966Z,99624.98
2019-01-12T19:35:24.337Z,99625.63
2019-01-12T19:37:53.728Z,99624.16
2019-01-12T19:40:23.838Z,99620.52
2019-01-12T19:42:53.214Z,99617.76
2019-01-12T19:45:22.591Z,99615.59
2019-01-12T19:47:52.395Z,99609.42
2019-01-12T19:50:24.083Z,99604.48
2019-01-12T19:52:53.528Z,99606.38
2019-01-12T19:55:23.186Z,99608.23
2019-01-12T19:57:52.561Z,99608.19
2019-01-12T20:00:28.482Z,99612.29
2019-01-12T20:02:57.923Z,99605.68
2019-01-12T20:05:27.285Z,99605.89
2019-01-12T20:07:56.724Z,99605.37
2019-01-12T20:10:27.787Z,99603.42
2019-01-12T20:12:57.205Z,99588.52
2019-01-12T20:15:26.733Z,99595.41
2019-01-12T20:17:56.111Z,99592.16
2019-01-12T20:20:25.512Z,99593.89
2019-01-12T20:22:55.318Z,99592.23
2019-01-12T20:25:28.091Z,99592.83
2019-01-12T20:27:57.819Z,99589.51
2019-01-12T20:30:40.520Z,99595.23
2019-01-12T20:33:45.754Z,99590.41
2019-01-12T20:36:37.876Z,99593.05
2019-01-12T20:39:41.914Z,99595.93
2019-01-12T20:42:34.076Z,99591.76
2019-01-12T20:45:42.524Z,99598.57
2019-01-12T20:48:37.579Z,99599.47
2019-01-12T20:51:36.823Z,99595.09
2019-01-12T20:54:31.836Z,99597.39
2019-01-12T20:57:29.286Z,99599.70
2019-01-12T21:00:34.905Z,99592.97
2019-01-12T21:03:30.502Z,99598.52
2019-01-12T21:06:09.843Z,99596.98
2019-01-12T21:09:20.738Z,99581.91
2019-01-12T21:12:27.764Z,99589.91
2019-01-12T21:15:01.367Z,99595.77
2019-01-12T21:17:30.740Z,99589.50
2019-01-12T21:20:00.234Z,99592.23
2019-01-12T21:22:29.617Z,99593.72
2019-01-12T21:24:59.008Z,99588.67
2019-01-12T21:27:28.373Z,99587.34
2019-01-12T21:29:57.761Z,99585.39
2019-01-12T21:32:27.134Z,99592.34
2019-01-12T21:34:56.570Z,99579.16
2019-01-12T21:37:25.884Z,99595.09
2019-01-12T21:39:55.251Z,99585.44
2019-01-12T21:42:24.620Z,99578.14
2019-01-12T21:44:54.265Z,99586.16
2019-01-12T21:47:23.745Z,99581.45
2019-01-12T21:49:53.104Z,99585.67
2019-01-12T21:52:22.478Z,99578.71
2019-01-12T21:54:51.853Z,99586.00
2019-01-12T21:57:21.544Z,99587.82
2019-01-12T21:59:50.936Z,99582.03
2019-01-12T22:02:20.332Z,99584.70
2019-01-12T22:04:49.701Z,99588.50
2019-01-12T22:07:19.105Z,99585.86
2019-01-12T22:09:48.457Z,99588.13
2019-01-12T22:12:17.834Z,99580.59
2019-01-12T22:14:47.202Z,99580.42
2019-01-12T22:17:16.577Z,99580.58
2019-01-12T22:19:46.243Z,99571.48
2019-01-12T22:22:15.619Z,99583.69
2019-01-12T22:24:44.988Z,99574.37
2019-01-12T22:27:14.375Z,99579.79
2019-01-12T22:29:49.781Z,99581.85
2019-01-12T22:32:14.848Z,99579.02
2019-01-12T22:34:44.218Z,99584.98
2019-01-12T22:37:13.834Z,99580.55
2019-01-12T22:39:46.083Z,99587.70
2019-01-12T22:42:15.710Z,99585.25
2019-01-12T22:44:45.353Z,99580.27
2019-01-12T22:47:14.728Z,99578.21
2019-01-12T22:49:44.100Z,99575.80
2019-01-12T22:52:13.475Z,99568.55
2019-01-12T22:54:42.843Z,99571.25
2019-01-12T22:57:13.763Z,99569.62
2019-01-12T22:59:43.419Z,99575.99
2019-01-12T23:02:13.374Z,99569.58
2019-01-12T23:04:42.731Z,99568.00
2019-01-12T23:07:12.108Z,99572.47
2019-01-12T23:09:41.483Z,99567.52
2019-01-12T23:12:12.643Z,99563.73
2019-01-12T23:14:42.381Z,99561.13
2019-01-12T23:17:14.886Z,99566.56
2019-01-12T23:19:44.267Z,99560.56
2019-01-12T23:22:13.706Z,99556.22
2019-01-12T23:24:43.090Z,99552.28
2019-01-12T23:27:12.492Z,99549.44
2019-01-12T23:29:41.866Z,99543.21
2019-01-12T23:32:11.233Z,99542.86
2019-01-12T23:34:40.615Z,99534.38
2019-01-12T23:37:09.983Z,99523.19
2019-01-12T23:39:39.400Z,99518.61
2019-01-12T23:42:09.673Z,99518.98
2019-01-12T23:44:39.115Z,99529.22
2019-01-12T23:47:08.490Z,99532.11
2019-01-12T23:49:37.875Z,99526.79
2019-01-12T23:52:07.605Z,99525.48
2019-01-12T23:54:37.233Z,99524.08
2019-01-12T23:57:06.617Z,99528.06
2019-01-12T23:59:36.023Z,99523.05
